createdAt,value
2023-04-27T00:03:07.512Z,6.80
2023-04-27T00:08:11.446Z,6.77
2023-04-27T00:13:13.651Z,6.88
2023-04-27T00:18:15.750Z,6.66
2023-04-27T00:23:19.179Z,6.69
2023-04-27T00:28:21.111Z,6.68
2023-04-27T00:33:23.478Z,6.68
2023-04-27T00:38:27.266Z,6.70
2023-04-27T00:43:29.605Z,6.70
2023-04-27T00:48:31.802Z,6.47
2023-04-27T00:53:36.787Z,6.53
2023-04-27T00:58:38.840Z,6.50
2023-04-27T01:03:41.258Z,6.56
2023-04-27T01:08:44.382Z,6.58
2023-04-27T01:13:46.507Z,6.51
2023-04-27T01:18:48.569Z,6.37
2023-04-27T01:23:53.278Z,6.40
2023-04-27T01:28:55.311Z,6.29
2023-04-27T01:33:57.700Z,6.27
2023-04-27T01:39:01.099Z,6.36
2023-04-27T01:44:03.453Z,6.45
2023-04-27T01:49:06.076Z,6.35
2023-04-27T01:54:09.157Z,6.33
2023-04-27T01:59:11.260Z,6.29
2023-04-27T02:04:13.317Z,6.41
2023-04-27T02:09:18.413Z,6.27
2023-04-27T02:14:20.344Z,6.21
2023-04-27T02:19:22.463Z,6.25
2023-04-27T02:24:25.846Z,6.33
2023-04-27T02:29:30.695Z,6.17
2023-04-27T02:34:33.275Z,6.29
2023-04-27T02:39:36.784Z,6.27
2023-04-27T02:44:39.072Z,6.12
2023-04-27T02:49:41.168Z,6.10
2023-04-27T02:54:44.522Z,6.19
2023-04-27T02:59:46.475Z,6.12
2023-04-27T03:04:52.784Z,6.14
2023-04-27T03:09:56.300Z,6.11
2023-04-27T03:14:58.364Z,6.17
2023-04-27T03:20:00.564Z,6.10
2023-04-27T03:25:04.219Z,6.02
2023-04-27T03:30:07.523Z,6.09
2023-04-27T03:35:09.839Z,5.95
2023-04-27T03:40:14.214Z,6.07
2023-04-27T03:45:16.578Z,6.06
2023-04-27T03:50:18.671Z,5.98
2023-04-27T03:55:21.673Z,5.89
2023-04-27T04:00:23.838Z,5.95
2023-04-27T04:05:25.836Z,6.08
2023-04-27T04:10:29.433Z,5.92
2023-04-27T04:15:31.453Z,5.93
2023-04-27T04:20:35.074Z,5.96
2023-04-27T04:25:38.367Z,5.93
2023-04-27T04:30:40.587Z,5.84
2023-04-27T04:35:42.693Z,5.84
2023-04-27T04:40:47.054Z,6.00
2023-04-27T04:45:49.250Z,6.00
2023-04-27T04:50:51.193Z,6.18
2023-04-27T04:55:54.748Z,6.13
2023-04-27T05:00:56.798Z,6.30
2023-04-27T05:05:58.531Z,6.45
2023-04-27T05:11:02.035Z,6.65
2023-04-27T05:16:04.893Z,6.65
2023-04-27T05:21:14.137Z,6.72
2023-04-27T05:26:18.341Z,6.95
2023-04-27T05:31:20.535Z,7.19
2023-04-27T05:36:22.342Z,7.08
2023-04-27T05:41:25.801Z,7.19
2023-04-27T05:46:28.171Z,7.16
2023-04-27T05:51:30.026Z,7.16
2023-04-27T05:56:33.510Z,7.78
2023-04-27T06:01:36.094Z,7.35
2023-04-27T06:06:38.330Z,8.16
2023-04-27T06:11:41.813Z,8.25
2023-04-27T06:16:44.020Z,8.61
2023-04-27T06:21:46.062Z,8.56
2023-04-27T06:26:49.584Z,7.84
2023-04-27T06:31:51.646Z,7.97
2023-04-27T06:36:53.753Z,8.25
2023-04-27T06:41:57.125Z,8.66
2023-04-27T06:46:59.519Z,8.23
2023-04-27T06:52:03.405Z,8.61
2023-04-27T06:57:06.833Z,9.07
2023-04-27T07:02:08.972Z,8.49
2023-04-27T07:07:11.466Z,8.30
2023-04-27T07:12:14.910Z,8.68
2023-04-27T07:17:17.115Z,8.95
2023-04-27T07:22:19.357Z,8.90
2023-04-27T07:27:22.857Z,9.16
2023-04-27T07:32:24.901Z,8.99
2023-04-27T07:37:27.169Z,9.27
2023-04-27T07:42:30.497Z,8.57
2023-04-27T07:47:32.369Z,8.34
2023-04-27T07:52:34.073Z,8.54
2023-04-27T07:57:37.501Z,9.15
2023-04-27T08:02:39.753Z,9.78
2023-04-27T08:07:44.482Z,9.77
2023-04-27T08:12:48.622Z,10.45
2023-04-27T08:17:50.729Z,10.23
2023-04-27T08:22:52.888Z,10.70
2023-04-27T08:27:56.270Z,9.96
2023-04-27T08:32:58.640Z,9.87
2023-04-27T08:38:00.710Z,9.71
2023-04-27T08:43:04.227Z,9.19
2023-04-27T08:48:06.754Z,8.81
2023-04-27T08:53:17.550Z,8.48
2023-04-27T08:58:20.995Z,8.43
2023-04-27T09:03:23.529Z,8.99
2023-04-27T09:08:25.748Z,10.30
2023-04-27T09:13:38.815Z,9.99
2023-04-27T09:18:42.781Z,10.17
2023-04-27T09:23:45.070Z,10.30
2023-04-27T09:28:49.681Z,12.77
2023-04-27T09:33:55.516Z,13.33
2023-04-27T09:38:58.720Z,11.32
2023-04-27T09:44:02.477Z,10.27
2023-04-27T09:49:05.397Z,9.76
2023-04-27T09:54:09.619Z,10.10
2023-04-27T09:59:36.284Z,11.36
2023-04-27T10:04:56.892Z,15.09
2023-04-27T10:10:02.435Z,11.85
2023-04-27T10:15:15.260Z,11.38
2023-04-27T10:20:17.953Z,12.71
2023-04-27T10:25:21.867Z,14.17
2023-04-27T10:30:27.805Z,17.91
2023-04-27T10:35:34.400Z,16.42
2023-04-27T10:40:37.486Z,13.25
2023-04-27T10:45:41.302Z,12.20
2023-04-27T10:50:44.420Z,11.23
2023-04-27T10:55:46.080Z,13.13
2023-04-27T11:00:49.658Z,14.30
2023-04-27T11:06:00.540Z,14.77
2023-04-27T11:11:03.074Z,14.82
2023-04-27T11:16:06.880Z,14.74
2023-04-27T11:21:11.245Z,14.67
2023-04-27T11:26:15.451Z,14.61
2023-04-27T11:31:18.978Z,14.29
2023-04-27T11:36:22.713Z,13.64
2023-04-27T11:41:33.729Z,13.47
2023-04-27T11:46:37.755Z,12.22
2023-04-27T11:51:40.420Z,11.86
2023-04-27T11:56:43.571Z,11.62
2023-04-27T12:01:47.468Z,11.72
2023-04-27T12:06:49.461Z,12.05
2023-04-27T12:11:51.530Z,11.82
2023-04-27T12:16:55.006Z,12.68
2023-04-27T12:21:57.928Z,12.95
2023-04-27T12:27:00.474Z,12.98
2023-04-27T12:32:04.647Z,13.06
2023-04-27T12:37:06.901Z,12.47
2023-04-27T12:42:09.056Z,12.91
2023-04-27T12:47:20.106Z,13.42
2023-04-27T12:52:30.749Z,15.10
2023-04-27T12:57:32.891Z,14.43
2023-04-27T13:02:36.419Z,12.86
2023-04-27T13:07:38.682Z,12.25
2023-04-27T13:12:40.822Z,12.05
2023-04-27T13:17:44.435Z,12.26
2023-04-27T13:22:46.643Z,13.58
2023-04-27T13:27:48.898Z,12.70
2023-04-27T13:32:52.418Z,13.05
2023-04-27T13:37:54.576Z,13.21
2023-04-27T13:42:56.690Z,12.39
2023-04-27T13:47:59.898Z,12.91
2023-04-27T13:53:02.006Z,14.02
2023-04-27T13:58:04.106Z,13.36
2023-04-27T14:03:07.422Z,14.16
2023-04-27T14:08:10.337Z,13.02
2023-04-27T14:13:12.646Z,12.25
2023-04-27T14:18:16.465Z,13.09
2023-04-27T14:23:18.447Z,13.65
2023-04-27T14:28:20.564Z,13.63
2023-04-27T14:33:24.007Z,13.40
2023-04-27T14:38:26.114Z,13.51
2023-04-27T14:43:28.596Z,13.74
2023-04-27T14:48:32.144Z,13.46
2023-04-27T14:53:34.354Z,13.06
2023-04-27T14:58:36.513Z,13.00
2023-04-27T15:03:40.070Z,12.90
2023-04-27T15:08:41.872Z,12.43
2023-04-27T15:13:44.040Z,12.36
2023-04-27T15:18:47.128Z,11.86
2023-04-27T15:23:49.394Z,11.58
2023-04-27T15:28:51.591Z,11.48
2023-04-27T15:33:55.089Z,11.92
2023-04-27T15:38:57.911Z,13.57
2023-04-27T15:44:00.041Z,13.88
2023-04-27T15:49:03.214Z,13.56
2023-04-27T15:54:06.013Z,13.77
2023-04-27T15:59:08.581Z,13.78
2023-04-27T16:04:12.289Z,12.86
2023-04-27T16:09:14.604Z,12.01
2023-04-27T16:14:16.963Z,12.32
2023-04-27T16:19:20.409Z,13.03
2023-04-27T16:24:22.637Z,14.15
2023-04-27T16:29:24.841Z,14.02
2023-04-27T16:34:28.375Z,13.59
2023-04-27T16:39:30.612Z,13.09
2023-04-27T16:44:32.746Z,13.30
2023-04-27T16:49:36.380Z,13.61
2023-04-27T16:54:38.831Z,13.05
2023-04-27T16:59:40.981Z,12.91
2023-04-27T17:04:44.465Z,12.53
2023-04-27T17:09:46.217Z,12.06
2023-04-27T17:14:48.652Z,11.97
2023-04-27T17:19:52.132Z,11.54
2023-04-27T17:24:54.317Z,11.34
2023-04-27T17:35:00.898Z,11.03
2023-04-27T17:40:03.097Z,10.90
2023-04-27T17:45:06.045Z,10.84
2023-04-27T17:50:10.023Z,10.56
2023-04-27T17:55:12.516Z,10.28
2023-04-27T18:00:15.144Z,10.09
2023-04-27T18:05:18.584Z,9.82
2023-04-27T18:10:20.618Z,9.61
2023-04-27T18:15:22.638Z,9.50
2023-04-27T18:20:26.703Z,9.35
2023-04-27T18:25:30.100Z,9.14
2023-04-27T18:30:32.881Z,8.77
2023-04-27T18:35:36.381Z,8.45
2023-04-27T18:40:38.734Z,8.11
2023-04-27T18:45:40.945Z,7.83
2023-04-27T18:50:44.295Z,7.38
2023-04-27T18:55:46.744Z,7.10
2023-04-27T19:00:48.994Z,7.10
2023-04-27T19:05:52.065Z,6.86
2023-04-27T19:10:53.810Z,6.61
2023-04-27T19:15:55.503Z,6.34
2023-04-27T19:20:58.754Z,6.10
2023-04-27T19:26:11.981Z,5.93
2023-04-27T19:31:15.696Z,5.76
2023-04-27T19:36:18.851Z,5.59
2023-04-27T19:41:21.121Z,5.47
2023-04-27T19:46:23.288Z,5.35
2023-04-27T19:51:26.584Z,5.38
2023-04-27T19:56:28.557Z,5.25
2023-04-27T20:01:31.079Z,4.95
2023-04-27T20:06:34.346Z,4.75
2023-04-27T20:11:36.307Z,4.65
2023-04-27T20:16:38.549Z,4.44
2023-04-27T20:21:42.254Z,4.40
2023-04-27T20:26:43.966Z,4.38
2023-04-27T20:31:45.872Z,4.40
2023-04-27T20:36:49.383Z,4.32
2023-04-27T20:41:51.150Z,4.06
2023-04-27T20:46:53.387Z,3.93
2023-04-27T20:51:56.865Z,3.85
2023-04-27T20:56:59.190Z,3.81
2023-04-27T21:02:01.498Z,3.61
2023-04-27T21:07:05.093Z,3.49
2023-04-27T21:12:07.053Z,3.38
2023-04-27T21:17:09.525Z,3.30
2023-04-27T21:22:13.283Z,3.33
2023-04-27T21:27:15.038Z,3.15
2023-04-27T21:32:17.138Z,3.02
2023-04-27T21:37:20.906Z,2.89
2023-04-27T21:42:23.174Z,2.90
2023-04-27T21:47:25.491Z,2.85
2023-04-27T21:52:28.951Z,2.70
2023-04-27T21:57:31.872Z,2.67
2023-04-27T22:02:33.817Z,2.85
2023-04-27T22:07:37.881Z,2.77
2023-04-27T22:12:40.429Z,2.59
2023-04-27T22:17:42.370Z,2.42
2023-04-27T22:22:45.805Z,2.33
2023-04-27T22:27:47.861Z,2.31
2023-04-27T22:32:50.325Z,2.26
2023-04-27T22:37:54.292Z,2.22
2023-04-27T22:42:56.629Z,2.14
2023-04-27T22:47:59.092Z,2.13
2023-04-27T22:53:02.554Z,2.02
2023-04-27T22:58:04.996Z,2.01
2023-04-27T23:03:06.826Z,1.85
2023-04-27T23:08:10.507Z,1.88
2023-04-27T23:13:12.746Z,1.75
2023-04-27T23:18:15.221Z,1.64
2023-04-27T23:23:19.164Z,1.63
2023-04-27T23:28:21.237Z,1.50
2023-04-27T23:33:23.618Z,1.47
2023-04-27T23:38:27.197Z,1.41
2023-04-27T23:43:29.360Z,1.33
2023-04-27T23:48:31.752Z,1.27
2023-04-27T23:53:35.335Z,1.21
2023-04-27T23:58:37.621Z,1.37
